sensor_id;sensor_type;location;lat;lon;timestamp;temperature;humidity
212;DHT22;16228;48.800;9.002;2023-04-15T00:02:16;2.20;96.90
212;DHT22;16228;48.800;9.002;2023-04-15T00:04:44;2.30;96.90
212;DHT22;16228;48.800;9.002;2023-04-15T00:07:11;2.20;96.90
212;DHT22;16228;48.800;9.002;2023-04-15T00:09:39;2.20;96.90
212;DHT22;16228;48.800;9.002;2023-04-15T00:12:08;2.20;96.90
212;DHT22;16228;48.800;9.002;2023-04-15T00:14:35;2.20;96.90
212;DHT22;16228;48.800;9.002;2023-04-15T00:17:02;2.20;96.90
212;DHT22;16228;48.800;9.002;2023-04-15T00:19:30;2.20;96.90
212;DHT22;16228;48.800;9.002;2023-04-15T00:21:57;2.30;96.90
212;DHT22;16228;48.800;9.002;2023-04-15T00:24:24;2.20;96.90
212;DHT22;16228;48.800;9.002;2023-04-15T00:26:51;2.20;96.90
212;DHT22;16228;48.800;9.002;2023-04-15T00:29:19;2.10;96.90
212;DHT22;16228;48.800;9.002;2023-04-15T00:31:46;2.10;96.90
212;DHT22;16228;48.800;9.002;2023-04-15T00:34:13;2.20;96.90
212;DHT22;16228;48.800;9.002;2023-04-15T00:36:40;2.10;96.90
212;DHT22;16228;48.800;9.002;2023-04-15T00:39:07;2.20;96.90
212;DHT22;16228;48.800;9.002;2023-04-15T00:41:34;2.10;96.90
212;DHT22;16228;48.800;9.002;2023-04-15T00:44:04;2.10;96.90
212;DHT22;16228;48.800;9.002;2023-04-15T00:46:34;2.10;96.90
212;DHT22;16228;48.800;9.002;2023-04-15T00:49:03;2.00;96.90
212;DHT22;16228;48.800;9.002;2023-04-15T00:51:31;2.00;96.90
212;DHT22;16228;48.800;9.002;2023-04-15T00:54:00;2.00;96.90
212;DHT22;16228;48.800;9.002;2023-04-15T00:56:28;2.00;96.90
212;DHT22;16228;48.800;9.002;2023-04-15T00:58:56;2.00;96.90
212;DHT22;16228;48.800;9.002;2023-04-15T01:01:24;2.00;96.90
212;DHT22;16228;48.800;9.002;2023-04-15T01:03:52;2.00;96.90
212;DHT22;16228;48.800;9.002;2023-04-15T01:06:19;1.90;96.90
212;DHT22;16228;48.800;9.002;2023-04-15T01:08:46;1.80;96.90
212;DHT22;16228;48.800;9.002;2023-04-15T01:11:14;1.80;96.90
212;DHT22;16228;48.800;9.002;2023-04-15T01:13:41;1.70;96.90
212;DHT22;16228;48.800;9.002;2023-04-15T01:16:08;1.80;96.90
212;DHT22;16228;48.800;9.002;2023-04-15T01:18:36;1.80;96.90
212;DHT22;16228;48.800;9.002;2023-04-15T01:21:05;1.70;96.90
212;DHT22;16228;48.800;9.002;2023-04-15T01:23:35;1.70;96.90
212;DHT22;16228;48.800;9.002;2023-04-15T01:26:06;1.70;96.90
212;DHT22;16228;48.800;9.002;2023-04-15T01:28:33;1.80;96.90
212;DHT22;16228;48.800;9.002;2023-04-15T01:31:05;1.80;96.90
212;DHT22;16228;48.800;9.002;2023-04-15T01:33:33;1.70;96.90
212;DHT22;16228;48.800;9.002;2023-04-15T01:36:00;1.60;96.90
212;DHT22;16228;48.800;9.002;2023-04-15T01:38:27;1.50;96.90
212;DHT22;16228;48.800;9.002;2023-04-15T01:40:55;1.50;96.90
212;DHT22;16228;48.800;9.002;2023-04-15T01:43:25;1.60;96.90
212;DHT22;16228;48.800;9.002;2023-04-15T01:45:52;1.70;96.90
212;DHT22;16228;48.800;9.002;2023-04-15T01:48:19;1.60;96.90
212;DHT22;16228;48.800;9.002;2023-04-15T01:50:46;1.60;96.90
212;DHT22;16228;48.800;9.002;2023-04-15T01:53:13;1.60;96.90
212;DHT22;16228;48.800;9.002;2023-04-15T01:55:41;1.50;96.90
212;DHT22;16228;48.800;9.002;2023-04-15T01:58:08;1.50;96.90
212;DHT22;16228;48.800;9.002;2023-04-15T02:00:36;1.50;96.90
212;DHT22;16228;48.800;9.002;2023-04-15T02:03:03;1.50;96.90
212;DHT22;16228;48.800;9.002;2023-04-15T02:05:31;1.50;96.90
212;DHT22;16228;48.800;9.002;2023-04-15T02:07:58;1.40;96.90
212;DHT22;16228;48.800;9.002;2023-04-15T02:10:25;1.40;96.90
212;DHT22;16228;48.800;9.002;2023-04-15T02:12:53;1.40;96.90
212;DHT22;16228;48.800;9.002;2023-04-15T02:15:20;1.30;96.90
212;DHT22;16228;48.800;9.002;2023-04-15T02:17:48;1.40;96.90
212;DHT22;16228;48.800;9.002;2023-04-15T02:20:18;1.30;96.90
212;DHT22;16228;48.800;9.002;2023-04-15T02:22:45;1.30;96.90
212;DHT22;16228;48.800;9.002;2023-04-15T02:25:13;1.40;96.90
212;DHT22;16228;48.800;9.002;2023-04-15T02:27:41;1.50;96.90
212;DHT22;16228;48.800;9.002;2023-04-15T02:30:08;1.50;96.90
212;DHT22;16228;48.800;9.002;2023-04-15T02:32:36;1.50;96.90
212;DHT22;16228;48.800;9.002;2023-04-15T02:35:07;1.50;96.90
212;DHT22;16228;48.800;9.002;2023-04-15T02:37:35;1.40;96.90
212;DHT22;16228;48.800;9.002;2023-04-15T02:40:07;1.50;96.90
212;DHT22;16228;48.800;9.002;2023-04-15T02:42:35;1.50;96.90
212;DHT22;16228;48.800;9.002;2023-04-15T02:45:02;1.50;96.90
212;DHT22;16228;48.800;9.002;2023-04-15T02:47:29;1.40;96.90
212;DHT22;16228;48.800;9.002;2023-04-15T02:49:56;1.40;96.90
212;DHT22;16228;48.800;9.002;2023-04-15T02:52:26;1.30;96.90
212;DHT22;16228;48.800;9.002;2023-04-15T02:54:53;1.30;96.90
212;DHT22;16228;48.800;9.002;2023-04-15T02:57:22;1.40;96.90
212;DHT22;16228;48.800;9.002;2023-04-15T02:59:49;1.30;96.90
212;DHT22;16228;48.800;9.002;2023-04-15T03:02:16;1.40;96.90
212;DHT22;16228;48.800;9.002;2023-04-15T03:04:43;1.40;96.90
212;DHT22;16228;48.800;9.002;2023-04-15T03:07:10;1.40;96.90
212;DHT22;16228;48.800;9.002;2023-04-15T03:09:39;1.40;96.90
212;DHT22;16228;48.800;9.002;2023-04-15T03:12:06;1.40;96.90
212;DHT22;16228;48.800;9.002;2023-04-15T03:14:33;1.40;96.90
212;DHT22;16228;48.800;9.002;2023-04-15T03:17:00;1.30;96.90
212;DHT22;16228;48.800;9.002;2023-04-15T03:19:27;1.30;96.90
212;DHT22;16228;48.800;9.002;2023-04-15T03:21:54;1.20;96.90
212;DHT22;16228;48.800;9.002;2023-04-15T03:24:21;1.10;96.90
212;DHT22;16228;48.800;9.002;2023-04-15T03:26:49;1.00;96.90
212;DHT22;16228;48.800;9.002;2023-04-15T03:29:16;1.00;96.90
212;DHT22;16228;48.800;9.002;2023-04-15T03:31:43;1.10;96.90
212;DHT22;16228;48.800;9.002;2023-04-15T03:34:10;1.10;96.90
212;DHT22;16228;48.800;9.002;2023-04-15T03:36:37;1.10;96.90
212;DHT22;16228;48.800;9.002;2023-04-15T03:39:04;1.10;96.90
212;DHT22;16228;48.800;9.002;2023-04-15T03:41:31;1.00;96.90
212;DHT22;16228;48.800;9.002;2023-04-15T03:43:59;1.00;96.90
212;DHT22;16228;48.800;9.002;2023-04-15T03:46:26;1.00;96.90
212;DHT22;16228;48.800;9.002;2023-04-15T03:48:53;1.00;96.90
212;DHT22;16228;48.800;9.002;2023-04-15T03:51:20;0.90;96.90
212;DHT22;16228;48.800;9.002;2023-04-15T03:53:47;0.90;96.90
212;DHT22;16228;48.800;9.002;2023-04-15T03:56:14;1.00;96.90
212;DHT22;16228;48.800;9.002;2023-04-15T03:58:41;1.00;96.90
212;DHT22;16228;48.800;9.002;2023-04-15T04:01:10;1.00;96.90
212;DHT22;16228;48.800;9.002;2023-04-15T04:03:37;1.00;96.90
212;DHT22;16228;48.800;9.002;2023-04-15T04:06:03;1.00;96.90
212;DHT22;16228;48.800;9.002;2023-04-15T04:08:30;1.00;96.90
212;DHT22;16228;48.800;9.002;2023-04-15T04:10:57;1.00;96.90
212;DHT22;16228;48.800;9.002;2023-04-15T04:13:24;1.00;96.90
212;DHT22;16228;48.800;9.002;2023-04-15T04:15:51;1.10;96.90
212;DHT22;16228;48.800;9.002;2023-04-15T04:18:20;1.10;96.90
212;DHT22;16228;48.800;9.002;2023-04-15T04:20:47;1.10;96.90
212;DHT22;16228;48.800;9.002;2023-04-15T04:23:14;1.10;96.90
212;DHT22;16228;48.800;9.002;2023-04-15T04:25:41;1.10;96.90
212;DHT22;16228;48.800;9.002;2023-04-15T04:28:08;1.10;96.90
212;DHT22;16228;48.800;9.002;2023-04-15T04:30:36;1.10;96.90
212;DHT22;16228;48.800;9.002;2023-04-15T04:33:03;1.10;96.90
212;DHT22;16228;48.800;9.002;2023-04-15T04:35:31;1.00;96.90
212;DHT22;16228;48.800;9.002;2023-04-15T04:37:59;1.00;96.90
212;DHT22;16228;48.800;9.002;2023-04-15T04:40:27;1.00;96.90
212;DHT22;16228;48.800;9.002;2023-04-15T04:42:54;1.00;96.90
212;DHT22;16228;48.800;9.002;2023-04-15T04:45:21;1.00;96.90
212;DHT22;16228;48.800;9.002;2023-04-15T04:47:48;1.10;96.90
212;DHT22;16228;48.800;9.002;2023-04-15T04:50:15;1.10;96.90
212;DHT22;16228;48.800;9.002;2023-04-15T04:52:43;1.10;96.90
212;DHT22;16228;48.800;9.002;2023-04-15T04:55:10;1.10;96.90
212;DHT22;16228;48.800;9.002;2023-04-15T04:57:37;1.20;96.90
212;DHT22;16228;48.800;9.002;2023-04-15T05:00:06;1.10;96.90
212;DHT22;16228;48.800;9.002;2023-04-15T05:02:33;1.00;96.90
212;DHT22;16228;48.800;9.002;2023-04-15T05:05:00;1.10;96.90
212;DHT22;16228;48.800;9.002;2023-04-15T05:07:27;1.10;96.90
212;DHT22;16228;48.800;9.002;2023-04-15T05:09:56;1.10;96.90
212;DHT22;16228;48.800;9.002;2023-04-15T05:12:22;1.10;96.90
212;DHT22;16228;48.800;9.002;2023-04-15T05:14:49;1.10;96.90
212;DHT22;16228;48.800;9.002;2023-04-15T05:17:16;1.20;96.90
212;DHT22;16228;48.800;9.002;2023-04-15T05:19:43;1.30;96.90
212;DHT22;16228;48.800;9.002;2023-04-15T05:22:10;1.30;96.90
212;DHT22;16228;48.800;9.002;2023-04-15T05:24:37;1.30;96.90
212;DHT22;16228;48.800;9.002;2023-04-15T05:27:06;1.30;96.90
212;DHT22;16228;48.800;9.002;2023-04-15T05:29:35;1.40;96.90
212;DHT22;16228;48.800;9.002;2023-04-15T05:32:02;1.50;96.90
212;DHT22;16228;48.800;9.002;2023-04-15T05:34:29;1.60;96.90
212;DHT22;16228;48.800;9.002;2023-04-15T05:36:56;1.80;96.90
212;DHT22;16228;48.800;9.002;2023-04-15T05:39:23;1.90;96.90
212;DHT22;16228;48.800;9.002;2023-04-15T05:41:50;2.00;96.90
212;DHT22;16228;48.800;9.002;2023-04-15T05:44:18;2.20;96.90
212;DHT22;16228;48.800;9.002;2023-04-15T05:46:45;2.40;96.90
212;DHT22;16228;48.800;9.002;2023-04-15T05:49:12;2.60;96.90
212;DHT22;16228;48.800;9.002;2023-04-15T05:51:39;2.80;96.90
212;DHT22;16228;48.800;9.002;2023-04-15T05:54:06;2.90;96.90
212;DHT22;16228;48.800;9.002;2023-04-15T05:56:33;3.10;96.90
212;DHT22;16228;48.800;9.002;2023-04-15T05:59:00;3.30;96.90
212;DHT22;16228;48.800;9.002;2023-04-15T06:01:28;3.50;96.90
212;DHT22;16228;48.800;9.002;2023-04-15T06:03:55;3.80;96.90
212;DHT22;16228;48.800;9.002;2023-04-15T06:06:23;4.00;96.90
212;DHT22;16228;48.800;9.002;2023-04-15T06:08:50;4.30;96.90
212;DHT22;16228;48.800;9.002;2023-04-15T06:11:16;4.60;96.90
212;DHT22;16228;48.800;9.002;2023-04-15T06:13:43;4.90;96.90
212;DHT22;16228;48.800;9.002;2023-04-15T06:16:10;5.10;96.90
212;DHT22;16228;48.800;9.002;2023-04-15T06:18:39;5.40;96.90
212;DHT22;16228;48.800;9.002;2023-04-15T06:21:06;5.60;96.90
212;DHT22;16228;48.800;9.002;2023-04-15T06:23:34;5.90;96.90
212;DHT22;16228;48.800;9.002;2023-04-15T06:26:01;6.20;96.90
212;DHT22;16228;48.800;9.002;2023-04-15T06:28:28;6.60;96.90
212;DHT22;16228;48.800;9.002;2023-04-15T06:30:55;6.80;96.90
212;DHT22;16228;48.800;9.002;2023-04-15T06:33:22;7.10;96.90
212;DHT22;16228;48.800;9.002;2023-04-15T06:35:50;7.30;96.90
212;DHT22;16228;48.800;9.002;2023-04-15T06:38:17;7.60;96.90
212;DHT22;16228;48.800;9.002;2023-04-15T06:40:45;8.20;96.90
212;DHT22;16228;48.800;9.002;2023-04-15T06:43:12;8.50;96.90
212;DHT22;16228;48.800;9.002;2023-04-15T06:45:39;8.80;96.90
212;DHT22;16228;48.800;9.002;2023-04-15T06:48:06;9.20;96.90
212;DHT22;16228;48.800;9.002;2023-04-15T06:50:33;9.70;96.90
212;DHT22;16228;48.800;9.002;2023-04-15T06:53:02;10.20;96.90
212;DHT22;16228;48.800;9.002;2023-04-15T06:55:29;10.70;96.90
212;DHT22;16228;48.800;9.002;2023-04-15T06:57:56;11.30;96.90
212;DHT22;16228;48.800;9.002;2023-04-15T07:00:23;11.90;96.90
212;DHT22;16228;48.800;9.002;2023-04-15T07:02:50;12.30;95.20
212;DHT22;16228;48.800;9.002;2023-04-15T07:05:17;12.70;94.20
212;DHT22;16228;48.800;9.002;2023-04-15T07:07:44;12.90;91.80
212;DHT22;16228;48.800;9.002;2023-04-15T07:10:13;13.10;91.30
212;DHT22;16228;48.800;9.002;2023-04-15T07:12:40;13.10;91.00
212;DHT22;16228;48.800;9.002;2023-04-15T07:15:08;13.10;92.00
212;DHT22;16228;48.800;9.002;2023-04-15T07:17:35;13.30;91.20
212;DHT22;16228;48.800;9.002;2023-04-15T07:20:02;13.80;90.40
212;DHT22;16228;48.800;9.002;2023-04-15T07:22:29;14.50;88.70
212;DHT22;16228;48.800;9.002;2023-04-15T07:24:56;14.80;89.70
212;DHT22;16228;48.800;9.002;2023-04-15T07:27:25;14.70;90.80
212;DHT22;16228;48.800;9.002;2023-04-15T07:29:52;15.10;89.10
212;DHT22;16228;48.800;9.002;2023-04-15T07:32:19;16.20;86.80
212;DHT22;16228;48.800;9.002;2023-04-15T07:34:46;17.50;84.80
212;DHT22;16228;48.800;9.002;2023-04-15T07:37:14;18.00;79.50
212;DHT22;16228;48.800;9.002;2023-04-15T07:39:41;18.50;79.80
212;DHT22;16228;48.800;9.002;2023-04-15T07:42:08;18.40;77.50
212;DHT22;16228;48.800;9.002;2023-04-15T07:44:37;18.00;78.20
212;DHT22;16228;48.800;9.002;2023-04-15T07:47:04;18.20;78.10
212;DHT22;16228;48.800;9.002;2023-04-15T07:49:31;18.50;77.70
212;DHT22;16228;48.800;9.002;2023-04-15T07:51:58;18.40;77.20
212;DHT22;16228;48.800;9.002;2023-04-15T07:54:25;18.30;77.70
212;DHT22;16228;48.800;9.002;2023-04-15T07:56:52;18.20;78.90
212;DHT22;16228;48.800;9.002;2023-04-15T07:59:19;19.00;77.40
212;DHT22;16228;48.800;9.002;2023-04-15T08:01:47;20.40;74.90
212;DHT22;16228;48.800;9.002;2023-04-15T08:04:14;21.90;71.50
212;DHT22;16228;48.800;9.002;2023-04-15T08:06:41;22.40;69.20
212;DHT22;16228;48.800;9.002;2023-04-15T08:09:09;22.10;70.20
212;DHT22;16228;48.800;9.002;2023-04-15T08:11:36;22.30;69.70
212;DHT22;16228;48.800;9.002;2023-04-15T08:14:03;22.60;71.80
212;DHT22;16228;48.800;9.002;2023-04-15T08:16:30;22.30;69.60
212;DHT22;16228;48.800;9.002;2023-04-15T08:18:58;21.50;70.90
212;DHT22;16228;48.800;9.002;2023-04-15T08:21:25;20.80;73.30
212;DHT22;16228;48.800;9.002;2023-04-15T08:23:55;20.20;74.30
212;DHT22;16228;48.800;9.002;2023-04-15T08:26:22;19.40;73.70
212;DHT22;16228;48.800;9.002;2023-04-15T08:28:49;18.50;74.70
212;DHT22;16228;48.800;9.002;2023-04-15T08:31:17;17.90;77.20
212;DHT22;16228;48.800;9.002;2023-04-15T08:33:44;17.30;77.50
212;DHT22;16228;48.800;9.002;2023-04-15T08:36:12;17.00;80.10
212;DHT22;16228;48.800;9.002;2023-04-15T08:38:39;16.70;79.20
212;DHT22;16228;48.800;9.002;2023-04-15T08:41:10;16.70;80.60
212;DHT22;16228;48.800;9.002;2023-04-15T08:43:45;17.50;79.50
212;DHT22;16228;48.800;9.002;2023-04-15T08:46:13;18.60;76.30
212;DHT22;16228;48.800;9.002;2023-04-15T08:48:41;19.10;75.80
212;DHT22;16228;48.800;9.002;2023-04-15T08:51:09;18.80;74.30
212;DHT22;16228;48.800;9.002;2023-04-15T08:53:37;18.60;75.30
212;DHT22;16228;48.800;9.002;2023-04-15T08:56:05;18.90;75.00
212;DHT22;16228;48.800;9.002;2023-04-15T08:58:34;19.20;74.30
212;DHT22;16228;48.800;9.002;2023-04-15T09:01:01;19.50;74.90
212;DHT22;16228;48.800;9.002;2023-04-15T09:03:28;20.00;73.80
212;DHT22;16228;48.800;9.002;2023-04-15T09:05:56;20.10;72.50
212;DHT22;16228;48.800;9.002;2023-04-15T09:08:23;20.20;73.70
212;DHT22;16228;48.800;9.002;2023-04-15T09:10:52;20.20;74.50
212;DHT22;16228;48.800;9.002;2023-04-15T09:13:19;19.90;70.90
212;DHT22;16228;48.800;9.002;2023-04-15T09:15:47;19.40;72.50
212;DHT22;16228;48.800;9.002;2023-04-15T09:18:26;19.00;73.50
212;DHT22;16228;48.800;9.002;2023-04-15T09:20:54;19.00;75.90
212;DHT22;16228;48.800;9.002;2023-04-15T09:23:21;19.00;76.10
212;DHT22;16228;48.800;9.002;2023-04-15T09:25:48;19.10;76.10
212;DHT22;16228;48.800;9.002;2023-04-15T09:28:23;19.30;74.00
212;DHT22;16228;48.800;9.002;2023-04-15T09:30:51;19.60;72.30
212;DHT22;16228;48.800;9.002;2023-04-15T09:33:21;19.80;72.80
212;DHT22;16228;48.800;9.002;2023-04-15T09:35:56;19.80;70.20
212;DHT22;16228;48.800;9.002;2023-04-15T09:38:24;19.70;70.70
212;DHT22;16228;48.800;9.002;2023-04-15T09:40:51;20.00;69.20
212;DHT22;16228;48.800;9.002;2023-04-15T09:43:19;20.50;70.90
212;DHT22;16228;48.800;9.002;2023-04-15T09:45:48;20.80;71.60
212;DHT22;16228;48.800;9.002;2023-04-15T09:48:18;20.70;71.50
212;DHT22;16228;48.800;9.002;2023-04-15T09:50:46;20.20;70.40
212;DHT22;16228;48.800;9.002;2023-04-15T09:53:16;20.00;71.80
212;DHT22;16228;48.800;9.002;2023-04-15T09:55:45;19.80;70.70
212;DHT22;16228;48.800;9.002;2023-04-15T09:58:18;19.90;69.80
212;DHT22;16228;48.800;9.002;2023-04-15T10:00:47;19.90;71.30
212;DHT22;16228;48.800;9.002;2023-04-15T10:03:18;20.10;72.30
212;DHT22;16228;48.800;9.002;2023-04-15T10:05:47;20.40;69.10
212;DHT22;16228;48.800;9.002;2023-04-15T10:08:16;20.40;70.20
212;DHT22;16228;48.800;9.002;2023-04-15T10:10:44;20.20;72.00
212;DHT22;16228;48.800;9.002;2023-04-15T10:13:13;20.40;70.30
212;DHT22;16228;48.800;9.002;2023-04-15T10:15:43;20.40;72.00
212;DHT22;16228;48.800;9.002;2023-04-15T10:18:14;20.40;73.10
212;DHT22;16228;48.800;9.002;2023-04-15T10:20:42;20.50;71.60
212;DHT22;16228;48.800;9.002;2023-04-15T10:23:10;19.80;72.70
212;DHT22;16228;48.800;9.002;2023-04-15T10:25:37;19.70;74.50
212;DHT22;16228;48.800;9.002;2023-04-15T10:28:06;19.80;73.10
212;DHT22;16228;48.800;9.002;2023-04-15T10:30:34;19.70;72.90
212;DHT22;16228;48.800;9.002;2023-04-15T10:33:04;18.70;73.10
212;DHT22;16228;48.800;9.002;2023-04-15T10:35:32;18.10;76.50
212;DHT22;16228;48.800;9.002;2023-04-15T10:37:59;17.70;77.10
212;DHT22;16228;48.800;9.002;2023-04-15T10:40:28;17.30;79.90
212;DHT22;16228;48.800;9.002;2023-04-15T10:42:57;16.90;81.20
212;DHT22;16228;48.800;9.002;2023-04-15T10:45:25;16.70;82.30
212;DHT22;16228;48.800;9.002;2023-04-15T10:47:56;16.50;83.00
212;DHT22;16228;48.800;9.002;2023-04-15T10:50:26;16.30;82.40
212;DHT22;16228;48.800;9.002;2023-04-15T10:52:55;16.30;82.60
212;DHT22;16228;48.800;9.002;2023-04-15T10:55:24;17.20;82.10
212;DHT22;16228;48.800;9.002;2023-04-15T10:57:52;17.80;77.80
212;DHT22;16228;48.800;9.002;2023-04-15T11:00:23;18.10;75.20
212;DHT22;16228;48.800;9.002;2023-04-15T11:02:52;17.90;74.80
212;DHT22;16228;48.800;9.002;2023-04-15T11:05:21;17.40;75.80
212;DHT22;16228;48.800;9.002;2023-04-15T11:07:55;17.00;76.40
212;DHT22;16228;48.800;9.002;2023-04-15T11:10:50;16.70;75.30
212;DHT22;16228;48.800;9.002;2023-04-15T11:13:27;16.60;76.40
212;DHT22;16228;48.800;9.002;2023-04-15T11:15:58;17.10;77.20
212;DHT22;16228;48.800;9.002;2023-04-15T11:18:28;18.10;75.70
212;DHT22;16228;48.800;9.002;2023-04-15T11:20:57;18.40;73.50
212;DHT22;16228;48.800;9.002;2023-04-15T11:23:30;18.30;74.20
212;DHT22;16228;48.800;9.002;2023-04-15T11:25:58;18.40;75.80
212;DHT22;16228;48.800;9.002;2023-04-15T11:28:27;18.40;74.50
212;DHT22;16228;48.800;9.002;2023-04-15T11:30:54;18.70;75.00
212;DHT22;16228;48.800;9.002;2023-04-15T11:33:22;19.30;71.00
212;DHT22;16228;48.800;9.002;2023-04-15T11:35:50;19.80;70.30
212;DHT22;16228;48.800;9.002;2023-04-15T11:38:18;20.60;73.50
212;DHT22;16228;48.800;9.002;2023-04-15T11:40:47;21.70;68.90
212;DHT22;16228;48.800;9.002;2023-04-15T11:43:17;22.70;66.80
212;DHT22;16228;48.800;9.002;2023-04-15T11:45:50;23.30;67.10
212;DHT22;16228;48.800;9.002;2023-04-15T11:48:19;23.50;62.80
212;DHT22;16228;48.800;9.002;2023-04-15T11:50:52;24.20;64.10
212;DHT22;16228;48.800;9.002;2023-04-15T11:53:19;24.90;63.00
212;DHT22;16228;48.800;9.002;2023-04-15T11:55:49;24.70;63.30
212;DHT22;16228;48.800;9.002;2023-04-15T11:58:18;24.10;62.00
212;DHT22;16228;48.800;9.002;2023-04-15T12:00:46;23.70;63.70
212;DHT22;16228;48.800;9.002;2023-04-15T12:03:17;23.30;63.90
212;DHT22;16228;48.800;9.002;2023-04-15T12:06:07;23.00;65.10
212;DHT22;16228;48.800;9.002;2023-04-15T12:08:56;21.80;65.60
212;DHT22;16228;48.800;9.002;2023-04-15T12:11:30;20.60;66.30
212;DHT22;16228;48.800;9.002;2023-04-15T12:14:01;20.00;68.90
212;DHT22;16228;48.800;9.002;2023-04-15T12:16:29;20.20;71.20
212;DHT22;16228;48.800;9.002;2023-04-15T12:19:00;20.50;68.90
212;DHT22;16228;48.800;9.002;2023-04-15T12:21:34;21.20;68.70
212;DHT22;16228;48.800;9.002;2023-04-15T12:24:02;21.90;64.50
212;DHT22;16228;48.800;9.002;2023-04-15T12:26:34;21.80;62.80
212;DHT22;16228;48.800;9.002;2023-04-15T12:29:03;21.30;62.80
212;DHT22;16228;48.800;9.002;2023-04-15T12:31:30;20.50;67.60
212;DHT22;16228;48.800;9.002;2023-04-15T12:33:58;20.40;69.30
212;DHT22;16228;48.800;9.002;2023-04-15T12:36:25;21.10;70.30
212;DHT22;16228;48.800;9.002;2023-04-15T12:38:52;21.70;72.00
212;DHT22;16228;48.800;9.002;2023-04-15T12:41:20;22.10;70.60
212;DHT22;16228;48.800;9.002;2023-04-15T12:43:50;22.40;71.80
212;DHT22;16228;48.800;9.002;2023-04-15T12:46:17;21.90;71.10
212;DHT22;16228;48.800;9.002;2023-04-15T12:48:44;20.70;71.20
212;DHT22;16228;48.800;9.002;2023-04-15T12:51:12;19.40;73.00
212;DHT22;16228;48.800;9.002;2023-04-15T12:53:39;18.30;75.10
212;DHT22;16228;48.800;9.002;2023-04-15T12:56:06;17.50;76.40
212;DHT22;16228;48.800;9.002;2023-04-15T12:58:33;16.70;79.50
212;DHT22;16228;48.800;9.002;2023-04-15T13:01:02;16.10;80.80
212;DHT22;16228;48.800;9.002;2023-04-15T13:03:29;15.70;81.50
212;DHT22;16228;48.800;9.002;2023-04-15T13:05:56;15.70;83.50
212;DHT22;16228;48.800;9.002;2023-04-15T13:08:23;16.00;83.30
212;DHT22;16228;48.800;9.002;2023-04-15T13:10:50;16.50;82.90
212;DHT22;16228;48.800;9.002;2023-04-15T13:13:17;16.50;80.40
212;DHT22;16228;48.800;9.002;2023-04-15T13:15:44;16.50;81.00
212;DHT22;16228;48.800;9.002;2023-04-15T13:18:13;16.40;81.60
212;DHT22;16228;48.800;9.002;2023-04-15T13:20:40;16.30;78.50
212;DHT22;16228;48.800;9.002;2023-04-15T13:23:07;16.00;77.90
212;DHT22;16228;48.800;9.002;2023-04-15T13:25:34;15.80;77.30
212;DHT22;16228;48.800;9.002;2023-04-15T13:28:01;15.50;80.30
212;DHT22;16228;48.800;9.002;2023-04-15T13:30:28;15.10;80.20
212;DHT22;16228;48.800;9.002;2023-04-15T13:32:55;14.80;81.50
212;DHT22;16228;48.800;9.002;2023-04-15T13:35:24;14.60;80.30
212;DHT22;16228;48.800;9.002;2023-04-15T13:37:52;14.50;82.50
212;DHT22;16228;48.800;9.002;2023-04-15T13:40:20;14.40;83.60
212;DHT22;16228;48.800;9.002;2023-04-15T13:42:47;14.40;81.70
212;DHT22;16228;48.800;9.002;2023-04-15T13:45:14;14.40;83.30
212;DHT22;16228;48.800;9.002;2023-04-15T13:47:41;14.40;83.20
212;DHT22;16228;48.800;9.002;2023-04-15T13:50:08;14.50;83.30
212;DHT22;16228;48.800;9.002;2023-04-15T13:52:37;14.50;83.50
212;DHT22;16228;48.800;9.002;2023-04-15T13:55:05;14.80;82.60
212;DHT22;16228;48.800;9.002;2023-04-15T13:57:32;15.10;84.10
212;DHT22;16228;48.800;9.002;2023-04-15T13:59:59;15.40;79.60
212;DHT22;16228;48.800;9.002;2023-04-15T14:02:26;15.60;73.50
212;DHT22;16228;48.800;9.002;2023-04-15T14:04:53;15.70;72.20
212;DHT22;16228;48.800;9.002;2023-04-15T14:07:20;15.70;72.00
212;DHT22;16228;48.800;9.002;2023-04-15T14:09:48;15.50;71.90
212;DHT22;16228;48.800;9.002;2023-04-15T14:12:15;15.30;71.90
212;DHT22;16228;48.800;9.002;2023-04-15T14:14:43;15.00;73.30
212;DHT22;16228;48.800;9.002;2023-04-15T14:17:10;14.70;73.10
212;DHT22;16228;48.800;9.002;2023-04-15T14:19:37;14.30;75.00
212;DHT22;16228;48.800;9.002;2023-04-15T14:22:04;14.00;75.80
212;DHT22;16228;48.800;9.002;2023-04-15T14:24:31;13.80;76.70
212;DHT22;16228;48.800;9.002;2023-04-15T14:26:59;13.50;78.30
212;DHT22;16228;48.800;9.002;2023-04-15T14:29:26;13.50;77.70
212;DHT22;16228;48.800;9.002;2023-04-15T14:31:53;13.50;79.00
212;DHT22;16228;48.800;9.002;2023-04-15T14:34:22;13.50;79.60
212;DHT22;16228;48.800;9.002;2023-04-15T14:36:50;13.50;78.40
212;DHT22;16228;48.800;9.002;2023-04-15T14:39:17;13.20;78.70
212;DHT22;16228;48.800;9.002;2023-04-15T14:41:44;13.20;80.70
212;DHT22;16228;48.800;9.002;2023-04-15T14:44:12;13.20;79.80
212;DHT22;16228;48.800;9.002;2023-04-15T14:46:39;13.10;81.30
212;DHT22;16228;48.800;9.002;2023-04-15T14:49:06;13.10;80.50
212;DHT22;16228;48.800;9.002;2023-04-15T14:51:34;13.00;82.30
212;DHT22;16228;48.800;9.002;2023-04-15T14:54:01;12.80;82.10
212;DHT22;16228;48.800;9.002;2023-04-15T14:56:28;12.70;83.70
212;DHT22;16228;48.800;9.002;2023-04-15T14:58:55;12.70;82.90
212;DHT22;16228;48.800;9.002;2023-04-15T15:01:23;12.60;83.80
212;DHT22;16228;48.800;9.002;2023-04-15T15:03:50;12.50;86.50
212;DHT22;16228;48.800;9.002;2023-04-15T15:06:19;12.50;87.00
212;DHT22;16228;48.800;9.002;2023-04-15T15:08:46;12.30;85.60
212;DHT22;16228;48.800;9.002;2023-04-15T15:11:13;12.20;87.60
212;DHT22;16228;48.800;9.002;2023-04-15T15:13:39;12.20;88.00
212;DHT22;16228;48.800;9.002;2023-04-15T15:16:06;12.20;89.20
212;DHT22;16228;48.800;9.002;2023-04-15T15:18:36;12.30;89.80
212;DHT22;16228;48.800;9.002;2023-04-15T15:21:03;12.30;89.00
212;DHT22;16228;48.800;9.002;2023-04-15T15:23:30;12.20;88.20
212;DHT22;16228;48.800;9.002;2023-04-15T15:25:57;12.20;88.50
212;DHT22;16228;48.800;9.002;2023-04-15T15:28:24;12.30;89.40
212;DHT22;16228;48.800;9.002;2023-04-15T15:30:51;12.40;87.60
212;DHT22;16228;48.800;9.002;2023-04-15T15:33:18;12.30;88.10
212;DHT22;16228;48.800;9.002;2023-04-15T15:35:46;12.40;88.00
212;DHT22;16228;48.800;9.002;2023-04-15T15:38:13;12.30;88.90
212;DHT22;16228;48.800;9.002;2023-04-15T15:40:40;12.20;89.50
212;DHT22;16228;48.800;9.002;2023-04-15T15:43:07;12.30;89.00
212;DHT22;16228;48.800;9.002;2023-04-15T15:45:35;12.30;88.70
212;DHT22;16228;48.800;9.002;2023-04-15T15:48:02;12.20;88.10
212;DHT22;16228;48.800;9.002;2023-04-15T15:50:29;12.10;87.10
212;DHT22;16228;48.800;9.002;2023-04-15T15:52:57;12.00;86.70
212;DHT22;16228;48.800;9.002;2023-04-15T15:55:24;12.00;87.50
212;DHT22;16228;48.800;9.002;2023-04-15T15:57:52;12.00;87.40
212;DHT22;16228;48.800;9.002;2023-04-15T16:00:19;12.10;88.00
212;DHT22;16228;48.800;9.002;2023-04-15T16:02:47;12.00;87.20
212;DHT22;16228;48.800;9.002;2023-04-15T16:05:14;12.10;88.70
212;DHT22;16228;48.800;9.002;2023-04-15T16:07:41;12.20;88.00
212;DHT22;16228;48.800;9.002;2023-04-15T16:10:09;12.30;89.30
212;DHT22;16228;48.800;9.002;2023-04-15T16:12:39;12.40;89.70
212;DHT22;16228;48.800;9.002;2023-04-15T16:15:08;12.50;90.50